This is the latest recevied weather packets stored in our database for station/object W9WRP. If no packets are shown the sender has not sent any weather packets the latest 10 day(s).
| Time | Temp. | Humidity | Pressure | Rain* | Wind** | Luminosity | Snow |
|---|---|---|---|---|---|---|---|
| 1787847574 | 36.67° C | 21% | 1015.8 hPa | 0 mm | - | 301 W/m² | - |
| 1787847270 | 36.67° C | 21% | 1015.9 hPa | 0 mm | - | 155 W/m² | - |
| 1787846967 | 36.67° C | 21% | 1015.8 hPa | 0 mm | - | 144 W/m² | - |
| 1787846666 | 36.67° C | 21% | 1015.7 hPa | 0 mm | - | 160 W/m² | - |
| 1787846361 | 36.11° C | 21% | 1015.8 hPa | 0 mm | - | 235 W/m² | - |
| 1787846057 | 36.11° C | 21% | 1015.8 hPa | 0 mm | - | 196 W/m² | - |
| 1787845752 | 35.56° C | 22% | 1016 hPa | 0 mm | - | 175 W/m² | - |
| 1787845447 | 35.56° C | 23% | 1016 hPa | 0 mm | - | 177 W/m² | - |
| 1787845143 | 36.11° C | 22% | 1015.8 hPa | 0 mm | - | 258 W/m² | - |
| 1787844838 | 36.11° C | 22% | 1015.7 hPa | 0 mm | - | 238 W/m² | - |
| 1787844537 | 35.56° C | 23% | 1015.7 hPa | 0 mm | - | 203 W/m² | - |
| 1787844227 | 35.56° C | 24% | 1015.6 hPa | 0 mm | - | 137 W/m² | - |
| 1787843925 | 34.44° C | 25% | 1015.6 hPa | 0 mm | - | 140 W/m² | - |
| 1787843621 | 33.89° C | 31% | 1015.5 hPa | 0 mm | - | 143 W/m² | - |
| 1787843317 | 33.89° C | 33% | 1015.7 hPa | 0 mm | - | 115 W/m² | - |
| 1787842712 | 32.78° C | 36% | 1015.4 hPa | 0 mm | - | 101 W/m² | - |
| 1787842407 | 32.78° C | 35% | 1015.4 hPa | 0 mm | - | 94 W/m² | - |
| 1787842101 | 32.78° C | 36% | 1015.4 hPa | 0 mm | - | 92 W/m² | - |
| 1787841797 | 32.78° C | 34% | 1015.4 hPa | 0 mm | - | 90 W/m² | - |
| 1787841493 | 32.22° C | 35% | 1015.3 hPa | 0 mm | - | 87 W/m² | - |
| 1787841191 | 32.22° C | 35% | 1015.1 hPa | 0 mm | - | 83 W/m² | - |
| 1787840887 | 32.22° C | 33% | 1015.3 hPa | 0 mm | - | 77 W/m² | - |
| 1787840582 | 31.67° C | 34% | 1015.4 hPa | 0 mm | - | 75 W/m² | - |
| 1787840277 | 31.11° C | 34% | 1015 hPa | 0 mm | - | 77 W/m² | - |
| 1787839976 | 31.11° C | 34% | 1014.8 hPa | 0 mm | - | 74 W/m² | - |
* Rain latest hour (hover to see other rain measurements)
** Current wind speed in m/s (hover to see current wind gust speed)